createdAt,value
2017-12-01T00:00:39.743Z,37.07
2017-12-01T00:03:08.579Z,34.63
2017-12-01T00:05:37.425Z,38.40
2017-12-01T00:08:06.946Z,39.70
2017-12-01T00:10:35.782Z,38.50
2017-12-01T00:13:04.622Z,35.00
2017-12-01T00:15:33.735Z,35.77
2017-12-01T00:18:03.304Z,34.83
2017-12-01T00:20:32.890Z,36.43
2017-12-01T00:23:02.467Z,32.50
2017-12-01T00:25:31.412Z,33.40
2017-12-01T00:28:00.262Z,36.60
2017-12-01T00:30:29.091Z,34.20
2017-12-01T00:32:57.922Z,35.20
2017-12-01T00:35:26.761Z,31.57
2017-12-01T00:37:55.589Z,38.23
2017-12-01T00:40:24.421Z,38.53
2017-12-01T00:42:53.285Z,33.90
2017-12-01T00:45:22.110Z,35.40
2017-12-01T00:47:50.945Z,36.43
2017-12-01T00:50:19.787Z,34.53
2017-12-01T00:52:48.625Z,31.50
2017-12-01T00:55:17.451Z,34.23
2017-12-01T00:57:46.302Z,35.83
2017-12-01T01:00:15.125Z,32.37
2017-12-01T01:02:43.969Z,36.37
2017-12-01T01:05:12.823Z,34.17
2017-12-01T01:07:41.758Z,33.40
2017-12-01T01:10:10.591Z,34.13
2017-12-01T01:12:39.428Z,31.97
2017-12-01T01:15:08.262Z,33.50
2017-12-01T01:17:37.096Z,33.03
2017-12-01T01:20:05.934Z,35.33
2017-12-01T01:22:35.614Z,32.57
2017-12-01T01:25:05.318Z,32.13
2017-12-01T01:27:35.120Z,34.03
2017-12-01T01:30:04.694Z,30.47
2017-12-01T01:32:34.269Z,35.23
2017-12-01T01:35:03.219Z,33.83
2017-12-01T01:37:32.054Z,34.27
2017-12-01T01:40:00.884Z,32.10
2017-12-01T01:42:29.729Z,34.53
2017-12-01T01:44:58.561Z,30.30
2017-12-01T01:47:27.462Z,30.00
2017-12-01T01:49:56.309Z,35.90
2017-12-01T01:52:25.247Z,32.27
2017-12-01T01:54:54.081Z,31.00
2017-12-01T01:57:22.920Z,33.30
2017-12-01T01:59:51.747Z,27.10
2017-12-01T02:02:20.578Z,29.77
2017-12-01T02:04:49.424Z,28.83
2017-12-01T02:07:18.317Z,30.70
2017-12-01T02:09:47.147Z,32.33
2017-12-01T02:12:15.989Z,31.43
2017-12-01T02:14:44.816Z,29.40
2017-12-01T02:17:13.668Z,33.47
2017-12-01T02:19:42.510Z,30.03
2017-12-01T02:22:11.348Z,29.50
2017-12-01T02:24:40.186Z,31.57
2017-12-01T02:27:09.020Z,25.97
2017-12-01T02:29:37.846Z,26.10
2017-12-01T02:32:07.425Z,26.63
2017-12-01T02:34:37.057Z,23.90
2017-12-01T02:37:06.633Z,22.93
2017-12-01T02:39:36.213Z,21.97
2017-12-01T02:42:05.053Z,25.77
2017-12-01T02:44:33.901Z,23.10
2017-12-01T02:47:02.790Z,24.47
2017-12-01T02:49:31.650Z,24.90
2017-12-01T02:52:00.487Z,22.43
2017-12-01T02:54:29.371Z,23.80
2017-12-01T02:56:58.217Z,24.10
2017-12-01T02:59:27.064Z,24.07
2017-12-01T03:01:55.955Z,22.57
2017-12-01T03:04:25.239Z,23.10
2017-12-01T03:06:54.146Z,24.47
2017-12-01T03:09:23.035Z,21.33
2017-12-01T03:11:51.947Z,24.70
2017-12-01T03:14:20.771Z,21.90
2017-12-01T03:16:49.602Z,24.50
2017-12-01T03:19:18.478Z,22.10
2017-12-01T03:21:47.382Z,22.93
2017-12-01T03:24:16.280Z,24.47
2017-12-01T03:26:45.134Z,22.53
2017-12-01T03:29:13.962Z,24.13
2017-12-01T03:31:42.796Z,22.70
2017-12-01T03:34:11.635Z,21.70
2017-12-01T03:36:40.517Z,24.10
2017-12-01T03:39:10.150Z,21.80
2017-12-01T03:41:39.838Z,24.97
2017-12-01T03:44:09.409Z,22.43
2017-12-01T03:46:38.989Z,20.00
2017-12-01T03:49:08.585Z,21.03
2017-12-01T03:51:37.443Z,22.77
2017-12-01T03:54:06.347Z,20.53
2017-12-01T03:56:35.203Z,21.87
2017-12-01T03:59:04.035Z,20.30
2017-12-01T04:01:32.865Z,22.70
2017-12-01T04:04:01.749Z,22.77
2017-12-01T04:06:30.595Z,21.40
2017-12-01T04:08:59.451Z,22.87
2017-12-01T04:11:28.296Z,25.03
2017-12-01T04:13:57.150Z,21.30
2017-12-01T04:16:26.044Z,21.27
2017-12-01T04:18:54.898Z,21.90
2017-12-01T04:21:23.734Z,23.83
2017-12-01T04:23:52.568Z,24.57
2017-12-01T04:26:21.406Z,25.57
2017-12-01T04:28:50.237Z,24.93
2017-12-01T04:31:19.086Z,24.90
2017-12-01T04:33:47.928Z,28.30
2017-12-01T04:36:16.761Z,30.43
2017-12-01T04:38:45.594Z,33.67
2017-12-01T04:41:14.437Z,31.10
2017-12-01T04:43:43.352Z,25.87
2017-12-01T04:46:12.185Z,32.90
2017-12-01T04:48:41.774Z,32.33
2017-12-01T04:51:11.443Z,32.10
2017-12-01T04:53:41.025Z,32.07
2017-12-01T04:56:10.617Z,31.83
2017-12-01T04:58:40.203Z,31.30
2017-12-01T05:01:09.041Z,32.10
2017-12-01T05:03:37.880Z,30.27
2017-12-01T05:06:06.703Z,31.07
2017-12-01T05:08:35.628Z,35.27
2017-12-01T05:11:04.457Z,32.20
2017-12-01T05:13:33.295Z,37.70
2017-12-01T05:16:02.240Z,35.20
2017-12-01T05:18:31.272Z,40.37
2017-12-01T05:21:00.109Z,38.37
2017-12-01T05:23:28.974Z,39.47
2017-12-01T05:25:57.818Z,36.93
2017-12-01T05:28:26.649Z,41.43
2017-12-01T05:30:55.570Z,40.87
2017-12-01T05:33:24.421Z,35.53
2017-12-01T05:35:53.262Z,35.80
2017-12-01T05:38:22.097Z,35.80
2017-12-01T05:40:51.006Z,33.60
2017-12-01T05:43:19.837Z,36.53
2017-12-01T05:45:48.724Z,33.37
2017-12-01T05:48:17.573Z,37.40
2017-12-01T05:50:46.413Z,37.00
2017-12-01T05:53:15.383Z,39.77
2017-12-01T05:55:44.218Z,33.33
2017-12-01T05:58:13.260Z,37.97
2017-12-01T06:00:42.889Z,37.73
2017-12-01T06:03:12.569Z,42.00
2017-12-01T06:05:42.138Z,38.33
2017-12-01T06:08:11.725Z,40.13
2017-12-01T06:10:40.550Z,37.37
2017-12-01T06:13:09.386Z,35.33
2017-12-01T06:15:38.232Z,38.53
2017-12-01T06:18:07.055Z,37.60
2017-12-01T06:20:35.895Z,38.33
2017-12-01T06:23:04.735Z,41.87
2017-12-01T06:25:33.579Z,36.10
2017-12-01T06:28:02.414Z,36.00
2017-12-01T06:30:31.254Z,36.97
2017-12-01T06:33:00.097Z,43.10
2017-12-01T06:35:28.924Z,39.57
2017-12-01T06:37:57.770Z,39.13
2017-12-01T06:40:26.611Z,41.10
2017-12-01T06:42:55.436Z,39.80
2017-12-01T06:45:24.279Z,44.60
2017-12-01T06:47:53.150Z,43.20
2017-12-01T06:50:21.989Z,41.03
2017-12-01T06:52:50.833Z,151.03
2017-12-01T06:55:19.670Z,98.37
2017-12-01T06:57:48.504Z,44.53
2017-12-01T07:00:17.373Z,39.63
2017-12-01T07:02:46.201Z,36.07
2017-12-01T07:05:15.059Z,39.30
2017-12-01T07:07:44.511Z,43.55
2017-12-01T07:10:14.079Z,44.73
2017-12-01T07:12:43.663Z,40.57
2017-12-01T07:15:13.256Z,43.63
2017-12-01T07:17:42.875Z,43.70
2017-12-01T07:20:11.702Z,47.30
2017-12-01T07:22:40.559Z,44.17
2017-12-01T07:25:09.390Z,48.90
2017-12-01T07:27:38.290Z,52.07
2017-12-01T07:30:07.134Z,54.03
2017-12-01T07:32:35.962Z,53.97
2017-12-01T07:35:04.792Z,51.97
2017-12-01T07:37:33.726Z,48.10
2017-12-01T07:40:02.650Z,50.20
2017-12-01T07:42:31.485Z,52.20
2017-12-01T07:45:01.616Z,51.63
2017-12-01T07:47:30.446Z,47.73
2017-12-01T07:49:59.269Z,43.23
2017-12-01T07:52:28.227Z,56.53
2017-12-01T07:54:57.061Z,68.63
2017-12-01T07:57:25.957Z,61.80
2017-12-01T07:59:54.873Z,50.23
2017-12-01T08:02:23.797Z,58.13
2017-12-01T08:04:52.629Z,41.93
2017-12-01T08:07:21.468Z,31.83
2017-12-01T08:09:51.143Z,29.90
2017-12-01T08:12:20.158Z,27.57
2017-12-01T08:14:49.079Z,33.83
2017-12-01T08:17:23.760Z,32.87
2017-12-01T08:19:52.606Z,40.07
2017-12-01T08:22:27.346Z,34.73
2017-12-01T08:25:02.150Z,24.00
2017-12-01T08:27:31.014Z,26.23
2017-12-01T08:29:59.852Z,22.70
2017-12-01T08:32:28.704Z,24.17
2017-12-01T08:34:57.542Z,32.90
2017-12-01T08:37:26.369Z,21.37
2017-12-01T08:39:55.212Z,23.40
2017-12-01T08:42:24.053Z,22.17
2017-12-01T08:44:52.882Z,25.10
2017-12-01T08:47:21.730Z,22.30
2017-12-01T08:49:50.561Z,22.20
2017-12-01T08:52:19.495Z,22.23
2017-12-01T08:54:48.365Z,22.33
2017-12-01T08:57:17.207Z,21.80
2017-12-01T08:59:46.521Z,18.87
2017-12-01T09:02:16.105Z,17.50
2017-12-01T09:04:45.683Z,20.37
2017-12-01T09:07:15.285Z,23.67
2017-12-01T09:09:44.873Z,22.07
2017-12-01T09:12:13.781Z,20.07
2017-12-01T09:14:42.611Z,20.10
2017-12-01T09:17:11.457Z,18.73
2017-12-01T09:19:40.294Z,20.20
2017-12-01T09:22:09.130Z,19.20
2017-12-01T09:24:37.981Z,20.63
2017-12-01T09:27:06.851Z,18.73
2017-12-01T09:29:35.678Z,19.50
2017-12-01T09:32:04.525Z,18.40
2017-12-01T09:34:33.394Z,21.27
2017-12-01T09:37:02.232Z,19.30
2017-12-01T09:39:31.080Z,18.83
2017-12-01T09:41:59.914Z,19.10
2017-12-01T09:44:28.745Z,20.67
2017-12-01T09:46:57.590Z,19.27
2017-12-01T09:49:26.426Z,17.07
2017-12-01T09:51:55.272Z,19.03
2017-12-01T09:54:24.113Z,18.30
2017-12-01T09:56:52.942Z,17.57
2017-12-01T09:59:21.889Z,19.00
2017-12-01T10:01:50.741Z,20.33
2017-12-01T10:04:19.587Z,19.50
2017-12-01T10:06:48.417Z,18.67
2017-12-01T10:09:17.863Z,23.37
2017-12-01T10:11:47.475Z,24.90
2017-12-01T10:14:17.061Z,22.57
2017-12-01T10:16:46.709Z,23.30
2017-12-01T10:19:16.282Z,20.60
2017-12-01T10:21:45.119Z,19.87
2017-12-01T10:24:13.964Z,22.70
2017-12-01T10:26:42.803Z,20.07
2017-12-01T10:29:11.634Z,21.47
2017-12-01T10:31:40.486Z,19.63
2017-12-01T10:34:09.317Z,18.53
2017-12-01T10:36:38.151Z,20.50
2017-12-01T10:39:07.046Z,18.17
2017-12-01T10:41:35.873Z,18.97
2017-12-01T10:44:04.712Z,18.17
2017-12-01T10:46:33.546Z,17.93
2017-12-01T10:49:02.410Z,18.73
2017-12-01T10:51:31.238Z,16.60
2017-12-01T10:54:00.166Z,17.27
2017-12-01T10:56:29.004Z,18.20
2017-12-01T10:58:57.846Z,17.00
2017-12-01T11:01:26.758Z,17.43
2017-12-01T11:03:55.587Z,18.00
2017-12-01T11:06:24.413Z,18.10
2017-12-01T11:08:53.263Z,17.27
2017-12-01T11:11:22.088Z,15.87
2017-12-01T11:13:51.001Z,17.47
2017-12-01T11:16:20.901Z,17.42
2017-12-01T11:18:49.725Z,17.53
2017-12-01T11:21:19.297Z,16.43
2017-12-01T11:23:48.881Z,16.03
2017-12-01T11:26:18.514Z,17.47
2017-12-01T11:28:48.087Z,18.30
2017-12-01T11:31:17.684Z,15.93
2017-12-01T11:33:46.515Z,16.77
2017-12-01T11:36:15.352Z,17.63
2017-12-01T11:38:44.299Z,16.83
2017-12-01T11:41:13.125Z,16.80
2017-12-01T11:43:41.962Z,17.27
2017-12-01T11:46:10.906Z,19.67
2017-12-01T11:48:39.726Z,19.97
2017-12-01T11:51:08.566Z,22.40
2017-12-01T11:53:37.471Z,18.63
2017-12-01T11:56:06.310Z,17.70
2017-12-01T11:58:35.138Z,20.73
2017-12-01T12:01:03.989Z,19.80
2017-12-01T12:03:32.896Z,23.43
2017-12-01T12:06:02.029Z,23.90
2017-12-01T12:08:30.879Z,20.50
2017-12-01T12:10:59.786Z,21.77
2017-12-01T12:13:28.627Z,21.87
2017-12-01T12:15:57.475Z,22.97
2017-12-01T12:18:26.309Z,21.27
2017-12-01T12:20:55.152Z,23.17
2017-12-01T12:23:23.991Z,22.27
2017-12-01T12:25:52.927Z,22.20
2017-12-01T12:28:21.837Z,21.90
2017-12-01T12:30:50.856Z,23.02
2017-12-01T12:33:20.429Z,22.27
2017-12-01T12:35:50.006Z,20.73
2017-12-01T12:38:19.626Z,22.30
2017-12-01T12:40:49.194Z,21.93
2017-12-01T12:43:18.026Z,22.97
2017-12-01T12:45:46.954Z,23.23
2017-12-01T12:48:15.796Z,27.50
2017-12-01T12:50:44.630Z,28.80
2017-12-01T12:53:13.478Z,29.00
2017-12-01T12:55:42.322Z,21.20
2017-12-01T12:58:11.164Z,23.10
2017-12-01T13:00:40.129Z,23.43
2017-12-01T13:03:09.066Z,20.00
2017-12-01T13:05:37.901Z,22.73
2017-12-01T13:08:06.743Z,22.03
2017-12-01T13:10:35.567Z,18.20
2017-12-01T13:13:04.401Z,21.33
2017-12-01T13:15:33.249Z,22.53
2017-12-01T13:18:02.191Z,21.70
2017-12-01T13:20:31.023Z,19.50
2017-12-01T13:22:59.889Z,22.77
2017-12-01T13:25:28.726Z,20.73
2017-12-01T13:27:57.659Z,21.03
2017-12-01T13:30:26.586Z,18.83
2017-12-01T13:32:55.410Z,20.93
2017-12-01T13:35:24.250Z,21.73
2017-12-01T13:37:53.090Z,17.43
2017-12-01T13:40:22.442Z,19.50
2017-12-01T13:42:52.014Z,20.50
2017-12-01T13:45:21.822Z,18.50
2017-12-01T13:47:51.396Z,20.27
2017-12-01T13:50:20.989Z,21.23
2017-12-01T13:52:49.842Z,19.57
2017-12-01T13:55:18.782Z,18.13
2017-12-01T13:57:47.627Z,21.00
2017-12-01T14:00:16.457Z,21.70
2017-12-01T14:02:45.287Z,19.30
2017-12-01T14:05:14.135Z,19.70
2017-12-01T14:07:43.025Z,16.63
2017-12-01T14:10:11.827Z,16.40
2017-12-01T14:12:40.772Z,19.63
2017-12-01T14:15:09.807Z,20.13
2017-12-01T14:17:38.635Z,17.20
2017-12-01T14:20:07.483Z,18.93
2017-12-01T14:22:36.367Z,16.97
2017-12-01T14:25:05.360Z,15.83
2017-12-01T14:27:34.431Z,17.33
2017-12-01T14:30:03.603Z,18.80
2017-12-01T14:32:32.487Z,19.00
2017-12-01T14:35:01.389Z,19.03
2017-12-01T14:37:30.256Z,22.63
2017-12-01T14:39:59.095Z,19.30
2017-12-01T14:42:28.074Z,19.30
2017-12-01T14:44:56.922Z,21.23
2017-12-01T14:47:25.758Z,21.13
2017-12-01T14:49:54.602Z,20.93
2017-12-01T14:52:24.178Z,19.67
2017-12-01T14:54:53.780Z,20.70
2017-12-01T14:57:23.382Z,15.90
2017-12-01T14:59:52.956Z,19.50
2017-12-01T15:02:22.595Z,16.17
2017-12-01T15:04:51.425Z,19.10
2017-12-01T15:07:20.262Z,19.17
2017-12-01T15:09:49.265Z,19.00
2017-12-01T15:12:18.105Z,23.83
2017-12-01T15:14:46.950Z,19.60
2017-12-01T15:17:15.803Z,20.47
2017-12-01T15:19:44.631Z,20.27
2017-12-01T15:22:13.507Z,18.57
2017-12-01T15:24:42.347Z,20.17
2017-12-01T15:27:11.185Z,17.87
2017-12-01T15:29:40.047Z,20.70
2017-12-01T15:32:09.005Z,19.97
2017-12-01T15:34:38.007Z,20.50
2017-12-01T15:37:06.833Z,20.47
2017-12-01T15:39:35.714Z,20.30
2017-12-01T15:42:04.575Z,21.63
2017-12-01T15:44:33.404Z,21.53
2017-12-01T15:47:02.242Z,21.47
2017-12-01T15:49:31.139Z,22.70
2017-12-01T15:52:00.026Z,32.27
2017-12-01T15:54:28.910Z,29.00
2017-12-01T15:56:57.790Z,19.97
2017-12-01T15:59:26.656Z,20.00
2017-12-01T16:01:56.090Z,19.05
2017-12-01T16:04:25.662Z,18.60
2017-12-01T16:06:55.245Z,20.97
2017-12-01T16:09:24.833Z,19.00
2017-12-01T16:11:54.900Z,20.73
2017-12-01T16:14:24.562Z,21.00
2017-12-01T16:16:53.465Z,20.97
2017-12-01T16:19:22.339Z,19.27
2017-12-01T16:21:51.309Z,22.43
2017-12-01T16:24:20.162Z,23.73
2017-12-01T16:26:48.989Z,28.27
2017-12-01T16:29:17.881Z,22.67
2017-12-01T16:31:46.743Z,22.27
2017-12-01T16:34:15.593Z,26.07
2017-12-01T16:36:44.486Z,36.03
2017-12-01T16:39:13.287Z,34.00
2017-12-01T16:41:42.112Z,27.20
2017-12-01T16:44:10.955Z,24.63
2017-12-01T16:46:39.900Z,27.97
2017-12-01T16:49:08.734Z,27.63
2017-12-01T16:51:37.562Z,29.17
2017-12-01T16:54:06.431Z,26.03
2017-12-01T16:56:35.268Z,25.73
2017-12-01T16:59:04.108Z,28.00
2017-12-01T17:01:32.964Z,25.10
2017-12-01T17:04:01.796Z,24.13
2017-12-01T17:06:30.796Z,24.23
2017-12-01T17:08:59.714Z,23.33
2017-12-01T17:11:28.537Z,26.93
2017-12-01T17:14:00.725Z,23.60
2017-12-01T17:16:29.624Z,23.90
2017-12-01T17:18:59.225Z,26.35
2017-12-01T17:21:28.096Z,25.97
2017-12-01T17:23:57.415Z,31.07
2017-12-01T17:26:27.003Z,25.40
2017-12-01T17:28:56.587Z,25.57
2017-12-01T17:31:26.160Z,26.40
2017-12-01T17:33:55.755Z,27.03
2017-12-01T17:36:24.591Z,26.17
2017-12-01T17:38:53.422Z,24.27
2017-12-01T17:41:22.349Z,24.50
2017-12-01T17:43:51.191Z,28.77
2017-12-01T17:46:20.024Z,28.80
2017-12-01T17:48:48.874Z,23.27
2017-12-01T17:51:17.814Z,23.67
2017-12-01T17:53:46.658Z,22.70
2017-12-01T17:56:15.748Z,25.40
2017-12-01T17:58:44.618Z,24.33
2017-12-01T18:01:13.476Z,22.20
2017-12-01T18:03:42.378Z,22.50
2017-12-01T18:06:11.214Z,26.40
2017-12-01T18:08:40.157Z,24.27
2017-12-01T18:11:09.051Z,24.67
2017-12-01T18:13:37.899Z,22.73
2017-12-01T18:16:06.733Z,22.50
2017-12-01T18:18:35.569Z,22.43
2017-12-01T18:21:04.419Z,24.73
2017-12-01T18:23:33.244Z,25.20
2017-12-01T18:26:02.089Z,26.10
2017-12-01T18:28:30.950Z,26.47
2017-12-01T18:30:59.813Z,28.20
2017-12-01T18:33:28.647Z,26.60
2017-12-01T18:35:58.231Z,31.70
2017-12-01T18:38:27.854Z,30.80
2017-12-01T18:40:57.549Z,25.83
2017-12-01T18:43:27.210Z,43.07
2017-12-01T18:45:56.795Z,30.53
2017-12-01T18:48:25.642Z,30.47
2017-12-01T18:50:54.518Z,26.60
2017-12-01T18:53:23.362Z,30.33
2017-12-01T18:55:52.197Z,31.47
2017-12-01T18:58:21.087Z,36.27
2017-12-01T19:00:49.909Z,28.93
2017-12-01T19:03:18.756Z,37.17
2017-12-01T19:05:47.614Z,29.97
2017-12-01T19:08:16.466Z,35.27
2017-12-01T19:10:45.298Z,53.80
2017-12-01T19:13:14.135Z,36.03
2017-12-01T19:15:42.985Z,27.63
2017-12-01T19:18:11.879Z,30.77
2017-12-01T19:20:40.727Z,29.27
2017-12-01T19:23:09.577Z,29.40
2017-12-01T19:25:39.279Z,31.97
2017-12-01T19:28:08.207Z,34.13
2017-12-01T19:30:37.051Z,34.27
2017-12-01T19:33:05.897Z,35.37
2017-12-01T19:35:34.731Z,33.60
2017-12-01T19:38:03.606Z,33.13
2017-12-01T19:40:32.463Z,35.97
2017-12-01T19:43:01.294Z,33.97
2017-12-01T19:45:30.142Z,33.50
2017-12-01T19:47:59.711Z,35.50
2017-12-01T19:50:29.292Z,34.40
2017-12-01T19:52:58.902Z,34.20
2017-12-01T19:55:28.566Z,37.43
2017-12-01T19:57:58.175Z,42.63
2017-12-01T20:00:27.024Z,51.40
2017-12-01T20:02:55.921Z,37.53
2017-12-01T20:05:24.757Z,38.77
2017-12-01T20:07:53.701Z,42.37
2017-12-01T20:10:22.697Z,38.37
2017-12-01T20:12:51.549Z,38.53
2017-12-01T20:15:20.394Z,44.30
2017-12-01T20:17:49.225Z,50.07
2017-12-01T20:20:18.075Z,47.97
2017-12-01T20:22:46.913Z,48.67
2017-12-01T20:25:15.839Z,65.40
2017-12-01T20:27:44.665Z,47.07
2017-12-01T20:30:13.515Z,69.90
2017-12-01T20:32:42.433Z,62.43
2017-12-01T20:35:11.281Z,65.83
2017-12-01T20:37:40.163Z,72.47
2017-12-01T20:40:08.990Z,70.10
2017-12-01T20:42:37.866Z,71.30
2017-12-01T20:45:06.732Z,56.30
2017-12-01T20:47:35.642Z,58.00
2017-12-01T20:50:04.480Z,51.53
2017-12-01T20:52:33.322Z,48.30
2017-12-01T20:55:02.206Z,49.97
2017-12-01T20:57:31.214Z,46.90
2017-12-01T21:00:00.833Z,55.63
2017-12-01T21:02:30.416Z,61.83
2017-12-01T21:05:00.010Z,56.10
2017-12-01T21:07:29.601Z,59.37
2017-12-01T21:09:58.441Z,64.00
2017-12-01T21:12:27.271Z,66.60
2017-12-01T21:14:56.146Z,63.87
2017-12-01T21:17:24.980Z,55.83
2017-12-01T21:19:53.805Z,56.50
2017-12-01T21:22:22.659Z,61.43
2017-12-01T21:24:51.493Z,54.63
2017-12-01T21:27:20.325Z,58.50
2017-12-01T21:29:49.179Z,69.50
2017-12-01T21:32:18.009Z,55.80
2017-12-01T21:34:46.847Z,52.43
2017-12-01T21:37:15.701Z,54.40
2017-12-01T21:39:44.605Z,72.23
2017-12-01T21:42:13.447Z,80.17
2017-12-01T21:44:42.287Z,75.83
2017-12-01T21:47:11.113Z,59.53
2017-12-01T21:49:39.951Z,62.17
2017-12-01T21:52:08.815Z,53.60
2017-12-01T21:54:37.728Z,51.53
2017-12-01T21:57:06.564Z,45.40
2017-12-01T21:59:35.402Z,45.73
2017-12-01T22:02:04.226Z,46.10
2017-12-01T22:04:33.562Z,48.30
2017-12-01T22:07:03.154Z,47.13
2017-12-01T22:09:32.738Z,49.70
2017-12-01T22:12:02.330Z,45.77
2017-12-01T22:14:31.931Z,43.60
2017-12-01T22:17:00.766Z,37.83
2017-12-01T22:19:29.617Z,40.97
2017-12-01T22:21:58.457Z,39.07
2017-12-01T22:24:27.310Z,41.80
2017-12-01T22:26:56.138Z,43.60
2017-12-01T22:29:25.077Z,44.60
2017-12-01T22:31:53.911Z,43.30
2017-12-01T22:34:22.741Z,37.43
2017-12-01T22:36:51.629Z,37.93
2017-12-01T22:39:20.461Z,37.97
2017-12-01T22:41:49.295Z,35.27
2017-12-01T22:44:18.139Z,40.47
2017-12-01T22:46:46.985Z,41.40
2017-12-01T22:49:15.927Z,43.73
2017-12-01T22:51:44.781Z,42.20
2017-12-01T22:54:13.729Z,35.60
2017-12-01T22:56:42.546Z,38.60
2017-12-01T22:59:11.790Z,37.90
2017-12-01T23:01:40.829Z,46.23
2017-12-01T23:04:09.938Z,41.20
2017-12-01T23:06:39.282Z,60.23
2017-12-01T23:09:08.138Z,57.73
2017-12-01T23:11:37.078Z,52.80
2017-12-01T23:14:05.922Z,67.53
2017-12-01T23:16:35.298Z,70.82
2017-12-01T23:19:04.882Z,60.63
2017-12-01T23:21:34.586Z,53.30
2017-12-01T23:24:04.277Z,49.63
2017-12-01T23:26:33.863Z,47.23
2017-12-01T23:29:03.723Z,48.10
2017-12-01T23:31:32.549Z,40.97
2017-12-01T23:34:02.201Z,39.20
2017-12-01T23:36:31.045Z,44.20
2017-12-01T23:38:59.883Z,38.30
2017-12-01T23:41:28.761Z,41.93
2017-12-01T23:43:57.595Z,37.23
2017-12-01T23:46:26.559Z,39.83
2017-12-01T23:48:55.399Z,39.50
2017-12-01T23:51:24.351Z,42.37
2017-12-01T23:53:53.186Z,44.40
2017-12-01T23:56:22.029Z,43.50
2017-12-01T23:58:50.864Z,41.70
